Ankara, Turkey

9:04 AM EEST on August 31, 2014 (GMT +0300)
Esenboga | Change Station
CLOSE
Current Station
Airport
Location: Ankara,
Elevation: 3114 ft
Nearby Weather Stations

Elev 3114 ft 40.13 °N, 33.00 °E | Updated 14 minutes ago

Clear
Clear
66 °F
Feels Like 66 °F
N
6
Wind Variable Wind from North

Today
High -- | Low -- °F
--% Chance of Precip.
Yesterday
High -- | Low -- °F
Precip. -- in
6:14 AM 7:21 PM
Waxing Crescent, 28% visible
Pressure 30.04 in
Visibility -9999.0 miles
Clouds
Dew Point 52 °F
Humidity 60%
Rainfall 0.00 in
Snow Depth Not available.
UV Not available.
Pollen Not available.
Air Quality Not available.
Flu Activity Not available.
METAR LTAC 310550Z 36005KT CAVOK 19/11 Q1017 NOSIG RMK RWY21L 36006KT RWY03L 36005KT 330V030 RWY21R 02007KT

More Conditions Fewer Conditions

Pressure 30.04 in
Visibility -9999.0 miles
Clouds
Dew Point 52 °F
Humidity 60%
Rainfall 0.00 in
Snow Depth Not available.
UV Not available.
Pollen Not available.
Air Quality Not available.
Flu Activity Not available.
METAR LTAC 310550Z 36005KT CAVOK 19/11 Q1017 NOSIG RMK RWY21L 36006KT RWY03L 36005KT 330V030 RWY21R 02007KT

More Conditions Fewer Conditions

10-Day Weather Forecast

Almanac

Astronomy

Aug. 31, 2014 Rise Set
Actual Time 6:14 AM EEST 7:21 PM EEST
Civil Twilight 5:46 AM EEST 7:49 PM EEST
Nautical Twilight 5:13 AM EEST 8:22 PM EEST
Astronomical Twilight 4:38 AM EEST 8:57 PM EEST
Moon 11:41 AM EEST 10:21 PM EEST
Length of Visible Light 14h 03m
Length of Day
13h 07m
Tomorrow will be 2m 32s shorter.
Waxing Crescent, 28% of the Moon is Illuminated
Today
Waxing Crescent
Sep 2
First Quarter
Sep 8
Full
Sep 15
Last Quarter
Sep 24
New

Yesterday's Extremes

Country Highs Country Lows

Community

WunderPhotos

Upload Photos

1,748,801 photos uploaded!

Nearby

Snow Depth

Not available.

Earthquake Activity

City Distance Mag. Time & Date
No recent earthquake activity has been reported nearby.
Minimum magnitude displayed is 2.5.

Coastal Water Temperatures

Place Temperature
No Stations Reporting

Nearby Weather Stations